Time;durP1;ratioP1;P1;durP2;ratioP2;P2;SDS_P1;SDS_P2;PMS_P1;PMS_P2;Temp;Humidity;BMP_temperature;BMP_pressure;BME280_temperature;BME280_humidity;BME280_pressure;Samples;Min_cycle;Max_cycle;Signal;HPM_P1;HPM_P2
2023/01/10 00:00:06;;;;;;;16.95;8.05;;;;;;;10.70;66.19;97300.09;4487043;32;20112;-80
2023/01/10 00:02:32;;;;;;;16.58;7.68;;;;;;;10.76;66.06;97296.16;4472890;32;20104;-80
2023/01/10 00:04:57;;;;;;;17.58;8.40;;;;;;;10.54;66.09;97297.81;4487490;32;20170;-80
2023/01/10 00:07:22;;;;;;;20.20;9.23;;;;;;;10.59;65.88;97294.84;4487894;32;20141;-80
2023/01/10 00:09:48;;;;;;;17.02;9.10;;;;;;;10.63;65.82;97294.47;4487957;32;20088;-80
2023/01/10 00:14:57;;;;;;;16.20;8.35;;;;;;;10.65;65.21;97299.62;4488018;32;20118;-80
2023/01/10 00:17:22;;;;;;;17.15;8.82;;;;;;;10.57;65.56;97297.59;4487747;32;20092;-80
2023/01/10 00:19:48;;;;;;;16.77;7.97;;;;;;;10.61;65.57;97301.66;4473684;32;20452;-80
2023/01/10 00:22:13;;;;;;;15.68;8.18;;;;;;;10.56;65.82;97298.53;4487757;32;20110;-80
2023/01/10 00:24:41;;;;;;;16.17;8.63;;;;;;;10.70;65.23;97293.97;4473481;32;20178;-80
2023/01/10 00:27:08;;;;;;;17.05;8.30;;;;;;;10.66;65.27;97290.75;4487900;32;20104;-80
2023/01/10 00:29:34;;;;;;;16.48;7.60;;;;;;;10.52;65.58;97291.00;4473669;32;20132;-80
2023/01/10 00:31:59;;;;;;;17.00;7.70;;;;;;;10.53;65.39;97290.06;4487955;32;20100;-80
2023/01/10 00:34:25;;;;;;;15.45;6.90;;;;;;;10.48;65.72;97284.31;4473533;32;20145;-80
2023/01/10 00:36:51;;;;;;;16.27;6.85;;;;;;;10.47;65.49;97282.63;4473396;32;20159;-80
2023/01/10 00:39:19;;;;;;;14.20;7.03;;;;;;;10.25;66.00;97284.25;4487686;32;20137;-80
2023/01/10 00:44:29;;;;;;;14.48;6.37;;;;;;;10.10;66.89;97282.81;4487740;32;20118;-81
2023/01/10 00:46:54;;;;;;;13.75;6.15;;;;;;;9.90;67.16;97281.72;4487790;32;20092;-81
2023/01/10 00:49:19;;;;;;;13.55;6.18;;;;;;;9.88;67.60;97284.44;4487698;32;20114;-80
2023/01/10 00:51:45;;;;;;;14.05;5.93;;;;;;;9.87;67.75;97281.94;4487573;32;20147;-79
2023/01/10 00:54:11;;;;;;;14.02;6.05;;;;;;;9.87;67.97;97284.56;4487725;32;20149;-80
2023/01/10 00:56:37;;;;;;;14.43;6.62;;;;;;;9.64;68.68;97289.78;4473329;32;20134;-81
2023/01/10 00:59:04;;;;;;;13.90;6.37;;;;;;;9.72;68.58;97291.84;4473218;32;20089;-81
2023/01/10 01:01:29;;;;;;;13.93;6.28;;;;;;;9.67;68.79;97296.59;4473253;32;20120;-81
2023/01/10 01:03:55;;;;;;;13.70;6.40;;;;;;;9.20;69.68;97302.59;4473149;32;20135;-80
2023/01/10 01:06:20;;;;;;;13.75;6.53;;;;;;;9.40;69.83;97292.41;4487599;32;20107;-81
2023/01/10 01:08:45;;;;;;;15.68;7.18;;;;;;;9.59;69.24;97289.28;4487493;32;20125;-81
2023/01/10 01:11:11;;;;;;;13.93;6.60;;;;;;;9.58;69.43;97293.69;4487361;32;20112;-81
2023/01/10 01:13:36;;;;;;;14.68;6.25;;;;;;;9.50;69.80;97292.59;4473239;32;20097;-81
2023/01/10 01:16:02;;;;;;;12.85;6.03;;;;;;;9.50;69.56;97292.59;4473293;32;20139;-81
2023/01/10 01:18:28;;;;;;;14.73;6.55;;;;;;;9.58;69.34;97285.81;4487434;32;20077;-81
2023/01/10 01:20:55;;;;;;;13.35;6.37;;;;;;;9.48;70.06;97283.97;4473229;32;20100;-81
2023/01/10 01:23:21;;;;;;;15.05;6.93;;;;;;;9.04;71.59;97286.28;4487596;32;20114;-81
2023/01/10 01:25:53;;;;;;;14.57;6.43;;;;;;;9.07;71.72;97288.69;4473526;32;20084;-81
2023/01/10 01:28:19;;;;;;;14.30;6.28;;;;;;;9.24;71.22;97280.41;4487460;32;20106;-81
2023/01/10 01:30:44;;;;;;;13.15;6.00;;;;;;;9.36;70.64;97275.22;4487428;32;20444;-81
2023/01/10 01:33:10;;;;;;;11.60;5.10;;;;;;;9.43;70.13;97281.69;4473169;32;20096;-81
2023/01/10 01:35:35;;;;;;;11.95;4.50;;;;;;;9.37;70.26;97282.16;4487367;32;20105;-81
2023/01/10 01:38:01;;;;;;;10.32;4.37;;;;;;;9.18;71.15;97285.28;4487417;32;20110;-81
2023/01/10 01:40:26;;;;;;;10.55;4.12;;;;;;;9.16;71.01;97290.66;4487273;32;20148;-81
2023/01/10 01:42:54;;;;;;;8.95;3.65;;;;;;;8.67;73.05;97288.91;4487411;32;20175;-81
2023/01/10 01:45:23;;;;;;;9.60;3.62;;;;;;;8.53;73.78;97282.00;4473356;32;20080;-81
2023/01/10 01:47:53;;;;;;;9.65;3.35;;;;;;;9.04;72.14;97281.03;4487383;32;20141;-81
2023/01/10 01:50:26;;;;;;;8.52;2.95;;;;;;;9.13;71.15;97282.97;4487349;32;20088;-81
2023/01/10 01:52:54;;;;;;;8.93;2.67;;;;;;;8.52;73.18;97293.47;4473140;32;20122;-81
2023/01/10 01:55:20;;;;;;;8.10;2.87;;;;;;;8.14;74.24;97288.22;4472975;32;20088;-81
2023/01/10 01:57:47;;;;;;;8.88;3.00;;;;;;;8.53;74.07;97287.25;4473001;32;20084;-81
2023/01/10 02:00:13;;;;;;;8.27;2.70;;;;;;;8.87;72.22;97282.25;4460004;32;20427;-81
2023/01/10 02:02:45;;;;;;;7.55;2.55;;;;;;;8.73;72.39;97288.50;4473061;32;20130;-81
2023/01/10 02:05:13;;;;;;;7.00;2.40;;;;;;;8.61;72.90;97291.97;4486952;32;20266;-80
2023/01/10 02:07:42;;;;;;;6.60;2.40;;;;;;;8.94;71.71;97295.78;4487190;32;20132;-81
2023/01/10 02:10:17;;;;;;;5.87;2.20;;;;;;;8.95;71.21;97298.28;4458871;32;20108;-81
2023/01/10 02:12:45;;;;;;;6.82;2.40;;;;;;;9.08;70.16;97302.66;4473023;32;20112;-81
2023/01/10 02:15:12;;;;;;;5.22;2.05;;;;;;;8.79;71.12;97308.22;4472788;32;20168;-81
2023/01/10 02:17:37;;;;;;;5.85;2.10;;;;;;;8.64;71.81;97316.22;4487143;32;20508;-81
2023/01/10 02:20:11;;;;;;;6.22;2.00;;;;;;;9.00;70.22;97314.56;4472853;32;20131;-81
2023/01/10 02:23:10;;;;;;;7.55;2.15;;;;;;;9.17;69.58;97313.31;4472714;32;20084;-81
2023/01/10 02:25:54;;;;;;;5.82;2.00;;;;;;;9.01;70.56;97312.78;4472919;32;20119;-80
2023/01/10 02:28:35;;;;;;;5.90;1.90;;;;;;;8.72;71.04;97318.31;4486981;32;20088;-81
2023/01/10 02:31:25;;;;;;;6.28;1.90;;;;;;;8.77;71.67;97312.72;4487072;32;20157;-81
2023/01/10 02:34:16;;;;;;;5.60;1.98;;;;;;;9.07;70.41;97303.63;4487075;32;20118;-81
2023/01/10 02:37:04;;;;;;;6.53;2.10;;;;;;;8.60;71.98;97311.31;4472688;32;20084;-80
2023/01/10 02:39:40;;;;;;;5.80;1.73;;;;;;;8.79;70.96;97300.34;4487239;32;20115;-81
2023/01/10 02:42:08;;;;;;;6.05;1.87;;;;;;;8.64;71.74;97299.62;4472844;32;20108;-81
2023/01/10 02:44:57;;;;;;;6.37;1.90;;;;;;;7.74;76.34;97309.28;4472881;32;20122;-80
2023/01/10 02:47:22;;;;;;;;;;;;;;;8.73;71.94;97296.38;4472889;32;20096;-81
2023/01/10 02:49:50;;;;;;;5.47;1.73;;;;;;;8.16;73.81;97302.91;4486618;32;19960;-80
2023/01/10 02:52:22;;;;;;;5.12;1.83;;;;;;;8.38;73.73;97304.03;4472769;32;20163;-81
2023/01/10 02:54:50;;;;;;;5.12;1.60;;;;;;;8.40;73.15;97302.16;4472438;32;20161;-81
2023/01/10 02:57:40;;;;;;;5.15;1.90;;;;;;;8.79;71.42;97298.56;4472475;32;20104;-78
2023/01/10 03:00:22;;;;;;;3.83;1.37;;;;;;;8.70;71.84;97296.56;4486588;32;20151;-81
2023/01/10 03:03:11;;;;;;;4.35;1.37;;;;;;;8.79;70.74;97298.56;4472532;32;20123;-80
2023/01/10 03:05:58;;;;;;;4.10;1.40;;;;;;;8.53;72.06;97305.63;4486401;32;20149;-81
2023/01/10 03:08:58;;;;;;;4.07;1.35;;;;;;;8.27;72.37;97312.69;4486768;32;20103;-80
2023/01/10 03:11:38;;;;;;;3.70;1.33;;;;;;;8.22;72.50;97314.75;4458384;32;20096;-82
2023/01/10 03:14:05;;;;;;;3.83;1.20;;;;;;;8.19;72.83;97314.97;4473620;32;20118;-81
2023/01/10 03:16:32;;;;;;;3.08;1.05;;;;;;;7.91;74.35;97323.88;4472231;32;20118;-81
2023/01/10 03:19:07;;;;;;;2.70;1.05;;;;;;;8.07;73.58;97324.50;4472205;32;20167;-81
2023/01/10 03:21:33;;;;;;;5.25;1.33;;;;;;;8.60;70.70;97320.00;4473668;32;20089;-81
2023/01/10 03:24:03;;;;;;;3.53;1.23;;;;;;;8.53;71.26;97331.03;4473934;32;20449;-81
2023/01/10 03:26:35;;;;;;;3.80;1.10;;;;;;;8.53;70.76;97323.16;4474121;32;20092;-82
2023/01/10 03:29:05;;;;;;;3.58;1.20;;;;;;;8.42;71.50;97324.78;4474082;32;20164;-81
2023/01/10 03:31:35;;;;;;;4.25;1.30;;;;;;;8.03;72.89;97325.66;4474073;32;20119;-80
2023/01/10 03:34:01;;;;;;;3.58;1.30;;;;;;;8.41;71.20;97335.34;4473883;32;20085;-80
2023/01/10 03:36:26;;;;;;;4.07;1.30;;;;;;;8.49;70.93;97330.41;4474088;32;20387;-80
2023/01/10 03:39:22;;;;;;;4.60;1.52;;;;;;;8.40;71.59;97334.50;4488128;32;20124;-79
2023/01/10 03:42:12;;;;;;;3.67;1.40;;;;;;;8.45;70.88;97324.53;4488212;32;20120;-80
2023/01/10 03:44:55;;;;;;;5.25;1.20;;;;;;;8.33;71.15;97328.00;4488142;32;20081;-80
2023/01/10 03:47:28;;;;;;;3.42;1.37;;;;;;;8.41;71.47;97332.72;4488371;32;20679;-80
2023/01/10 03:49:56;;;;;;;3.05;1.08;;;;;;;8.73;70.24;97334.91;4488134;32;20092;-80
2023/01/10 03:52:21;;;;;;;;;;;;;;;8.82;69.67;97334.25;4474241;32;20080;-79
2023/01/10 03:54:47;;;;;;;4.55;1.25;;;;;;;8.60;70.08;97340.19;4473872;32;19981;-79
2023/01/10 03:57:17;;;;;;;3.22;1.10;;;;;;;8.98;68.91;97329.59;4473817;32;20118;-79
2023/01/10 03:59:44;;;;;;;3.42;1.20;;;;;;;8.62;70.08;97338.28;4473940;32;20163;-79
2023/01/10 04:02:09;;;;;;;4.55;1.30;;;;;;;8.96;69.29;97349.03;4488203;32;20085;-80
2023/01/10 04:04:35;;;;;;;3.12;1.20;;;;;;;8.83;69.30;97346.44;4473725;32;20386;-80
2023/01/10 04:07:00;;;;;;;2.50;0.82;;;;;;;8.96;68.99;97349.03;4473928;32;20092;-80
2023/01/10 04:09:25;;;;;;;3.42;1.30;;;;;;;8.27;70.53;97358.09;4488216;32;20115;-80
2023/01/10 04:11:51;;;;;;;2.08;0.98;;;;;;;8.62;70.20;97368.00;4488198;32;20380;-80
2023/01/10 04:14:16;;;;;;;4.20;1.20;;;;;;;8.85;69.46;97360.31;4473841;32;20456;-80
2023/01/10 04:16:42;;;;;;;3.20;1.20;;;;;;;8.66;70.05;97360.75;4488338;32;20433;-81
2023/01/10 04:19:07;;;;;;;3.78;1.10;;;;;;;8.75;70.14;97362.75;4488252;32;20140;-81
2023/01/10 04:21:32;;;;;;;3.40;1.20;;;;;;;8.56;70.82;97360.56;4487980;32;20116;-81
2023/01/10 04:23:58;;;;;;;3.33;1.10;;;;;;;8.41;71.35;97351.06;4488043;32;20144;-80
2023/01/10 04:26:23;;;;;;;3.20;1.10;;;;;;;8.50;71.22;97345.22;4473591;32;20448;-80
2023/01/10 04:28:49;;;;;;;3.80;1.20;;;;;;;8.49;71.89;97346.16;4487788;32;20130;-81
2023/01/10 04:31:14;;;;;;;4.35;1.25;;;;;;;8.06;73.50;97347.28;4473631;32;20145;-81
2023/01/10 04:33:40;;;;;;;3.42;1.27;;;;;;;8.35;72.51;97344.47;4487261;32;20137;-82
2023/01/10 04:36:06;;;;;;;3.87;1.20;;;;;;;8.43;72.17;97343.97;4487871;32;20114;-81
2023/01/10 04:38:31;;;;;;;4.72;1.65;;;;;;;8.72;70.72;97346.34;4487971;32;20156;-81
2023/01/10 04:40:57;;;;;;;2.90;1.30;;;;;;;8.26;72.73;97340.66;4487719;32;20102;-81
2023/01/10 04:43:23;;;;;;;4.78;1.50;;;;;;;8.46;71.48;97347.22;4460329;32;20167;-82
2023/01/10 04:45:49;;;;;;;3.10;1.20;;;;;;;7.83;74.67;97354.06;4487990;32;20169;-81
2023/01/10 04:48:15;;;;;;;3.78;1.25;;;;;;;7.78;75.12;97352.69;4473761;32;20363;-81
2023/01/10 04:50:40;;;;;;;4.05;1.45;;;;;;;8.42;72.45;97358.03;4487994;32;20455;-81
2023/01/10 04:53:05;;;;;;;3.17;1.00;;;;;;;7.98;74.24;97369.75;4487878;32;20104;-81
2023/01/10 04:55:32;;;;;;;2.33;1.10;;;;;;;7.82;74.04;97373.38;4488024;32;20428;-81
2023/01/10 04:57:58;;;;;;;4.53;1.05;;;;;;;8.16;73.33;97376.34;4473413;32;20100;-81
2023/01/10 05:00:23;;;;;;;3.10;1.20;;;;;;;7.37;76.36;97391.12;4473349;32;20096;-80
2023/01/10 05:02:54;;;;;;;2.15;0.85;;;;;;;7.98;74.35;97386.31;4487646;32;20127;-81
2023/01/10 05:05:20;;;;;;;2.15;1.00;;;;;;;8.17;73.18;97393.78;4487394;32;20084;-81
2023/01/10 05:07:46;;;;;;;3.00;1.30;;;;;;;7.88;74.41;97396.56;4473320;32;20184;-81
2023/01/10 05:10:11;;;;;;;2.20;1.00;;;;;;;7.45;76.04;97406.38;4487531;32;20102;-81
2023/01/10 05:12:37;;;;;;;3.03;0.88;;;;;;;7.45;76.84;97411.59;4487521;32;20104;-81
2023/01/10 05:15:03;;;;;;;2.22;0.82;;;;;;;7.42;77.04;97415.28;4487393;32;20117;-81
2023/01/10 05:17:29;;;;;;;1.73;0.70;;;;;;;6.99;78.57;97415.34;4473245;32;20080;-80
2023/01/10 05:19:54;;;;;;;3.22;1.10;;;;;;;7.74;75.92;97414.12;4487462;32;20103;-80
2023/01/10 05:22:19;;;;;;;2.05;0.80;;;;;;;7.56;76.49;97422.25;4472911;32;20153;-80
2023/01/10 05:24:45;;;;;;;1.10;0.60;;;;;;;7.07;77.83;97422.75;4487196;32;20130;-81
2023/01/10 05:27:10;;;;;;;3.00;0.88;;;;;;;7.44;76.47;97436.12;4473223;32;20175;-81
2023/01/10 05:29:35;;;;;;;2.30;0.82;;;;;;;7.43;77.04;97444.91;4473161;32;20455;-80
2023/01/10 05:32:01;;;;;;;1.95;0.90;;;;;;;7.50;76.14;97440.97;4487394;32;20092;-81
2023/01/10 05:34:26;;;;;;;2.05;0.70;;;;;;;7.29;76.88;97432.69;4473125;32;20123;-81
2023/01/10 05:36:52;;;;;;;1.00;0.50;;;;;;;7.04;78.03;97436.00;4487447;32;20142;-81
2023/01/10 05:39:18;;;;;;;1.50;0.57;;;;;;;7.42;77.08;97430.16;4487506;32;20127;-81
2023/01/10 05:41:43;;;;;;;2.33;0.70;;;;;;;7.28;77.09;97431.87;4487372;32;20096;-81
2023/01/10 05:44:08;;;;;;;2.78;0.73;;;;;;;6.89;79.42;97438.66;4486109;32;20352;-81
2023/01/10 05:46:34;;;;;;;1.15;0.57;;;;;;;6.91;79.92;97438.53;4487400;32;20399;-81
2023/01/10 05:49:00;;;;;;;2.15;0.60;;;;;;;7.20;77.37;97426.25;4472952;32;20442;-82
2023/01/10 05:51:25;;;;;;;2.35;0.62;;;;;;;6.99;78.61;97435.44;4487394;32;20108;-81
2023/01/10 05:53:51;;;;;;;1.67;0.70;;;;;;;6.80;78.60;97443.56;4473040;32;20131;-81
2023/01/10 05:56:16;;;;;;;1.50;0.70;;;;;;;6.62;81.28;97448.16;4487236;32;20122;-81
2023/01/10 05:58:42;;;;;;;1.85;0.70;;;;;;;7.02;78.79;97443.94;4487247;32;20080;-83
2023/01/10 06:01:08;;;;;;;1.35;0.50;;;;;;;6.60;79.58;97444.78;4487195;32;20155;-81
2023/01/10 06:03:34;;;;;;;3.45;0.60;;;;;;;7.17;77.93;97452.66;4473021;32;20104;-81
2023/01/10 06:05:59;;;;;;;1.58;0.70;;;;;;;6.86;78.98;97462.37;4487429;32;20100;-81
2023/01/10 06:08:25;;;;;;;0.55;0.43;;;;;;;6.84;78.88;97469.50;4473044;32;20355;-81
2023/01/10 06:10:50;;;;;;;1.45;0.60;;;;;;;6.82;78.73;97471.37;4473121;32;20123;-82
2023/01/10 06:13:16;;;;;;;1.10;0.50;;;;;;;6.78;78.80;97482.94;4472791;32;20368;-81
2023/01/10 06:15:42;;;;;;;1.62;0.40;;;;;;;6.65;79.40;97485.44;4472831;32;20106;-81
2023/01/10 06:18:07;;;;;;;1.73;0.57;;;;;;;6.72;79.19;97498.16;4472828;32;20131;-81
2023/01/10 06:20:33;;;;;;;0.98;0.50;;;;;;;6.73;77.04;97498.09;4487013;32;20448;-81
2023/01/10 06:23:01;;;;;;;1.05;0.50;;;;;;;7.10;76.72;97488.00;4487137;32;20701;-81
2023/01/10 06:25:28;;;;;;;4.20;0.50;;;;;;;6.95;77.10;97488.94;4487005;32;20105;-81
2023/01/10 06:27:53;;;;;;;0.97;0.40;;;;;;;6.87;77.68;97507.72;4472975;32;20491;-81
2023/01/10 06:30:19;;;;;;;3.22;0.70;;;;;;;6.68;78.36;97505.34;4486946;32;20088;-81
2023/01/10 06:32:44;;;;;;;1.08;0.60;;;;;;;6.82;77.45;97507.19;4472734;32;20096;-82
2023/01/10 06:35:09;;;;;;;1.73;0.52;;;;;;;6.09;80.12;97532.28;4472760;32;20110;-81
2023/01/10 06:37:35;;;;;;;1.05;0.47;;;;;;;6.64;78.28;97525.63;4486970;32;20076;-83
2023/01/10 06:40:01;;;;;;;1.52;0.52;;;;;;;6.81;77.63;97534.28;4486050;32;20100;-82
2023/01/10 06:42:26;;;;;;;2.85;0.50;;;;;;;6.61;77.92;97536.28;4477646;32;20136;-81
2023/01/10 06:44:52;;;;;;;1.98;0.50;;;;;;;6.75;77.87;97527.62;4486078;31;20228;-83
2023/01/10 06:47:17;;;;;;;2.75;0.50;;;;;;;6.58;78.40;97533.00;4478284;32;20080;-83
2023/01/10 06:49:42;;;;;;;1.83;0.50;;;;;;;6.99;76.13;97532.31;4477298;32;20415;-81
2023/01/10 06:52:08;;;;;;;1.90;0.57;;;;;;;6.55;78.44;97538.41;4485509;31;20104;-83
2023/01/10 06:54:33;;;;;;;1.25;0.50;;;;;;;6.71;77.44;97523.50;4481579;31;20139;-82
2023/01/10 06:56:59;;;;;;;1.98;0.57;;;;;;;7.09;75.54;97529.06;4471107;32;20191;-82
2023/01/10 06:59:24;;;;;;;0.65;0.40;;;;;;;6.50;77.72;97530.84;4478006;32;20116;-83
2023/01/10 07:01:50;;;;;;;1.42;0.40;;;;;;;6.63;77.62;97538.81;4478672;32;20118;-81
2023/01/10 07:04:15;;;;;;;1.65;0.40;;;;;;;6.93;76.57;97541.38;4479160;32;213108;-84
2023/01/10 07:06:41;;;;;;;1.62;0.52;;;;;;;6.83;77.55;97553.34;4486326;32;20158;-78
2023/01/10 07:09:07;;;;;;;2.40;0.65;;;;;;;6.99;76.50;97554.13;4486943;32;20089;-84
2023/01/10 07:11:33;;;;;;;2.78;0.60;;;;;;;7.00;76.18;97563.66;4472158;32;20100;-83
2023/01/10 07:13:59;;;;;;;2.12;0.60;;;;;;;6.42;78.68;97580.97;4472313;32;20076;-83
2023/01/10 07:16:25;;;;;;;3.37;0.70;;;;;;;6.26;79.56;97591.47;4486548;32;20179;-78
2023/01/10 07:18:50;;;;;;;2.17;0.68;;;;;;;6.71;78.29;97595.94;4486305;32;20088;-84
2023/01/10 07:21:18;;;;;;;3.10;0.80;;;;;;;6.72;78.28;97614.16;4486491;31;20075;-83
2023/01/10 07:23:43;;;;;;;2.15;0.75;;;;;;;6.42;78.68;97604.53;4485959;32;20089;-86
2023/01/10 07:26:10;;;;;;;2.15;0.68;;;;;;;6.59;78.53;97611.41;4481160;31;20092;-86
2023/01/10 07:28:36;;;;;;;2.60;0.80;;;;;;;6.82;77.22;97610.09;4469730;32;20157;-87
2023/01/10 07:31:03;;;;;;;3.58;0.68;;;;;;;6.62;77.80;97618.25;4470091;32;20100;-87
2023/01/10 07:33:30;;;;;;;2.97;0.90;;;;;;;7.06;75.75;97617.44;4469710;32;20088;-84
2023/01/10 07:35:56;;;;;;;1.62;0.50;;;;;;;7.12;74.97;97624.09;4471887;32;20092;-85
2023/01/10 07:38:21;;;;;;;2.53;0.60;;;;;;;6.52;76.72;97632.78;4471949;32;20101;-84
2023/01/10 07:40:46;;;;;;;2.58;0.60;;;;;;;6.98;75.40;97630.97;4472067;32;20111;-85
2023/01/10 07:43:12;;;;;;;1.67;0.50;;;;;;;7.03;74.85;97631.56;4486029;32;20108;-86
2023/01/10 07:45:37;;;;;;;2.33;0.62;;;;;;;6.67;76.37;97642.38;4458607;32;20091;-83
2023/01/10 07:48:03;;;;;;;2.83;0.60;;;;;;;6.16;78.68;97644.38;4486063;32;20081;-84
2023/01/10 07:50:32;;;;;;;2.70;0.60;;;;;;;6.47;77.76;97656.56;4458612;32;20156;-80
2023/01/10 07:52:59;;;;;;;1.75;0.40;;;;;;;6.49;77.47;97662.59;4486282;32;20515;-79
2023/01/10 07:55:24;;;;;;;1.60;0.55;;;;;;;6.82;76.31;97666.84;4472000;32;20101;-82
2023/01/10 07:57:50;;;;;;;2.25;0.70;;;;;;;7.15;75.02;97669.28;4485910;32;20085;-80
2023/01/10 08:00:17;;;;;;;2.20;0.60;;;;;;;6.91;75.74;97678.56;4469371;32;20105;-82
2023/01/10 08:02:42;;;;;;;2.10;0.60;;;;;;;7.21;74.33;97681.19;4484347;32;20092;-81
2023/01/10 08:05:08;;;;;;;4.10;0.80;;;;;;;7.23;73.88;97680.12;4485726;32;20463;-81
2023/01/10 08:07:34;;;;;;;3.15;0.70;;;;;;;7.06;74.98;97685.53;4486601;32;20145;-81
2023/01/10 08:09:59;;;;;;;3.97;0.65;;;;;;;6.57;76.40;97696.19;4488197;32;20092;-81
2023/01/10 08:12:25;;;;;;;2.40;0.60;;;;;;;6.58;76.89;97710.94;4488295;32;20092;-84
2023/01/10 08:14:51;;;;;;;1.62;0.68;;;;;;;6.15;78.93;97700.22;4470614;32;20317;-84
2023/01/10 08:17:17;;;;;;;2.70;0.70;;;;;;;6.56;76.89;97707.56;4472369;32;20452;-82
2023/01/10 08:19:42;;;;;;;2.08;0.62;;;;;;;6.61;77.02;97714.22;4472461;32;20354;-83
2023/01/10 08:22:08;;;;;;;3.10;0.80;;;;;;;6.57;77.30;97719.72;4470269;32;20440;-81
2023/01/10 08:24:33;;;;;;;4.60;1.02;;;;;;;6.47;76.38;97728.09;4470685;32;20119;-81
2023/01/10 08:26:59;;;;;;;2.58;0.70;;;;;;;6.50;76.30;97735.75;4470610;32;20145;-81
2023/01/10 08:29:24;;;;;;;3.30;0.82;;;;;;;6.22;77.34;97741.66;4471853;32;20318;-81
2023/01/10 08:31:50;;;;;;;3.37;0.90;;;;;;;6.34;78.06;97750.59;4471681;32;20136;-81
2023/01/10 08:34:15;;;;;;;3.85;0.75;;;;;;;6.40;77.59;97755.50;4471733;32;20126;-81
2023/01/10 08:36:41;;;;;;;2.72;0.90;;;;;;;6.38;77.05;97746.88;4457589;32;20158;-81
2023/01/10 08:39:06;;;;;;;3.50;0.88;;;;;;;6.70;76.44;97762.59;4472257;32;20378;-81
2023/01/10 08:41:32;;;;;;;2.97;0.62;;;;;;;6.34;77.50;97763.69;4471169;32;20084;-81
2023/01/10 08:43:57;;;;;;;2.15;0.70;;;;;;;5.95;78.90;97761.38;4472240;32;20072;-82
2023/01/10 08:46:23;;;;;;;20.95;2.25;;;;;;;5.85;80.39;97771.44;4470915;32;20125;-82
2023/01/10 08:48:49;;;;;;;2.72;0.80;;;;;;;6.35;78.01;97774.97;4470941;32;20089;-82
2023/01/10 08:51:15;;;;;;;4.50;0.60;;;;;;;6.75;75.77;97781.50;4472091;32;20148;-81
2023/01/10 08:53:40;;;;;;;2.75;0.52;;;;;;;6.28;77.36;97792.78;4470685;32;20476;-82
2023/01/10 08:56:06;;;;;;;1.87;0.55;;;;;;;6.61;76.50;97789.28;4470843;32;20137;-82
2023/01/10 08:58:32;;;;;;;2.08;0.60;;;;;;;5.90;79.18;97804.28;4472046;32;20081;-80
2023/01/10 09:00:57;;;;;;;2.40;0.60;;;;;;;6.10;78.25;97797.19;4472085;32;20158;-81
2023/01/10 09:03:22;;;;;;;1.85;0.73;;;;;;;6.14;78.62;97811.78;4477755;32;20183;-81
2023/01/10 09:05:48;;;;;;;2.40;0.60;;;;;;;6.07;78.85;97820.91;4473158;32;20097;-81
2023/01/10 09:08:13;;;;;;;2.40;0.80;;;;;;;6.13;79.08;97823.19;4487622;32;20348;-81
2023/01/10 09:10:40;;;;;;;3.72;0.80;;;;;;;6.47;77.28;97827.50;4487544;32;20103;-82
2023/01/10 09:13:05;;;;;;;3.67;0.80;;;;;;;6.53;76.92;97844.66;4487604;32;20077;-82
2023/01/10 09:15:33;;;;;;;2.87;0.85;;;;;;;6.60;76.17;97851.22;4487441;32;20088;-81
2023/01/10 09:18:03;;;;;;;3.12;0.80;;;;;;;5.79;79.73;97858.00;4472957;32;20169;-82
2023/01/10 09:20:30;;;;;;;3.03;0.95;;;;;;;6.03;77.85;97863.81;4460377;32;20068;-81
2023/01/10 09:22:55;;;;;;;3.42;0.70;;;;;;;5.91;78.17;97854.81;4473268;32;20137;-82
2023/01/10 09:25:22;;;;;;;2.75;0.80;;;;;;;6.03;78.06;97869.06;4473267;32;20092;-82
2023/01/10 09:27:55;;;;;;;2.47;0.75;;;;;;;5.72;79.29;97876.63;4484143;32;20080;-82
2023/01/10 09:30:20;;;;;;;3.12;0.77;;;;;;;5.91;79.35;97871.31;4466197;32;20152;-81
2023/01/10 09:32:50;;;;;;;5.15;0.90;;;;;;;5.93;78.25;97876.47;4487319;32;20088;-82
2023/01/10 09:35:15;;;;;;;3.60;0.90;;;;;;;6.11;77.71;97882.56;4487359;32;20156;-82
2023/01/10 09:37:40;;;;;;;1.67;0.60;;;;;;;6.43;76.18;97877.44;4487465;32;20107;-82
2023/01/10 09:40:07;;;;;;;2.97;0.68;;;;;;;5.51;79.57;97890.75;4487185;32;20080;-82
2023/01/10 09:43:18;;;;;;;1.25;0.70;;;;;;;5.48;80.04;97903.94;4487550;32;20077;-81
2023/01/10 09:45:43;;;;;;;2.47;0.80;;;;;;;5.77;79.75;97896.44;4392773;32;20114;-82
2023/01/10 09:48:17;;;;;;;1.95;0.77;;;;;;;5.68;78.35;97916.91;4392100;32;20119;-81
2023/01/10 09:50:53;;;;;;;3.53;0.73;;;;;;;5.66;79.21;97916.12;4380032;32;20105;-82
2023/01/10 09:53:22;;;;;;;2.95;0.75;;;;;;;6.17;76.67;97920.66;4405234;32;20660;-82
2023/01/10 09:55:52;;;;;;;2.47;0.70;;;;;;;5.94;77.57;97919.97;4380311;32;20105;-82
2023/01/10 09:58:19;;;;;;;3.47;0.90;;;;;;;6.00;77.13;97919.69;4379637;32;20122;-81
2023/01/10 10:00:54;;;;;;;4.32;0.90;;;;;;;5.60;78.39;97942.56;4379653;32;20128;-81
2023/01/10 10:03:44;;;;;;;3.72;0.73;;;;;;;5.76;77.78;97939.22;4379988;32;20545;-81
2023/01/10 10:06:11;;;;;;;1.45;0.70;;;;;;;5.76;77.32;97942.66;4392138;32;20448;-82
2023/01/10 10:08:38;;;;;;;1.73;0.70;;;;;;;5.94;76.43;97927.81;4380195;32;20599;-81
2023/01/10 10:11:26;;;;;;;4.72;1.10;;;;;;;5.75;77.67;97959.25;4392366;32;20118;-81
2023/01/10 10:14:15;;;;;;;3.58;0.77;;;;;;;5.78;76.86;97932.97;4392503;32;20086;-81
2023/01/10 10:17:04;;;;;;;4.05;0.95;;;;;;;5.57;78.16;97949.69;4379337;32;20098;-82
2023/01/10 10:19:33;;;;;;;3.58;0.98;;;;;;;5.77;78.08;97941.72;4391481;32;20149;-82
2023/01/10 10:22:17;;;;;;;;;;;;;;;5.67;77.63;97951.78;4409214;32;20581;-83
2023/01/10 10:24:48;;;;;;;2.20;0.70;;;;;;;5.87;77.28;97948.22;4487315;32;20289;-82
2023/01/10 10:27:47;;;;;;;1.70;0.70;;;;;;;5.47;78.81;97938.84;4487064;32;20148;-82
2023/01/10 10:30:26;;;;;;;2.20;0.62;;;;;;;5.82;77.47;97944.97;4486301;32;20114;-81
2023/01/10 10:33:01;;;;;;;1.75;0.70;;;;;;;5.40;77.95;97946.09;4472846;32;20383;-81
2023/01/10 10:35:31;;;;;;;2.37;0.88;;;;;;;5.61;77.97;97951.22;4486948;32;20077;-80
2023/01/10 10:38:08;;;;;;;2.37;0.60;;;;;;;5.76;77.59;97950.50;4487050;32;20104;-80
2023/01/10 10:40:37;;;;;;;5.18;0.70;;;;;;;6.05;76.86;97961.31;4469581;32;20096;-81
2023/01/10 10:43:13;;;;;;;1.67;0.70;;;;;;;5.68;77.59;97965.72;4464027;32;20104;-81
2023/01/10 10:45:46;;;;;;;2.25;0.70;;;;;;;5.57;78.34;97971.44;4471063;32;20076;-81
2023/01/10 10:48:15;;;;;;;2.28;0.70;;;;;;;5.74;78.15;97983.69;4444103;32;20096;-81
2023/01/10 10:51:18;;;;;;;2.20;0.60;;;;;;;5.61;79.13;97977.34;4456995;32;20486;-81
2023/01/10 10:53:46;;;;;;;1.45;0.68;;;;;;;5.72;77.78;97982.94;4456971;32;20507;-81
2023/01/10 10:56:15;;;;;;;2.33;0.73;;;;;;;5.84;76.79;97991.94;4457231;32;20084;-81
2023/01/10 10:58:42;;;;;;;2.87;0.62;;;;;;;5.80;77.55;97988.63;4471813;32;20134;-79
2023/01/10 11:01:14;;;;;;;1.45;0.70;;;;;;;5.91;77.08;97994.19;4472478;32;20122;-82
2023/01/10 11:03:58;;;;;;;2.50;0.70;;;;;;;5.95;76.44;98001.88;4459139;32;20092;-79
2023/01/10 11:06:25;;;;;;;2.70;0.75;;;;;;;6.05;76.26;98003.16;4459257;32;20096;-82
2023/01/10 11:08:52;;;;;;;2.28;0.65;;;;;;;5.93;77.23;98012.41;4471891;32;20131;-83
2023/01/10 11:11:26;;;;;;;2.85;0.70;;;;;;;6.20;75.84;98014.63;4472278;32;20126;-83
2023/01/10 11:13:55;;;;;;;2.42;0.70;;;;;;;6.32;74.67;98008.81;4472352;32;20114;-84
2023/01/10 11:16:26;;;;;;;2.60;0.70;;;;;;;6.07;75.42;98015.22;4472161;32;20148;-84
2023/01/10 11:19:16;;;;;;;2.87;0.80;;;;;;;5.95;77.01;98017.53;4472135;32;20491;-84
2023/01/10 11:21:45;;;;;;;3.62;0.85;;;;;;;5.98;76.91;98023.50;4481101;32;20122;-85
2023/01/10 11:24:26;;;;;;;2.08;0.90;;;;;;;5.99;77.06;98035.69;4459434;32;20376;-85
2023/01/10 11:26:52;;;;;;;4.18;0.90;;;;;;;5.86;77.62;98026.69;4470743;32;20171;-84
2023/01/10 11:29:21;;;;;;;2.37;0.70;;;;;;;6.00;76.65;98033.91;4470531;32;20444;-85
2023/01/10 11:31:48;;;;;;;4.85;0.93;;;;;;;6.18;76.77;98042.63;4443363;32;20506;-86
2023/01/10 11:34:24;;;;;;;2.10;0.60;;;;;;;6.15;76.37;98051.47;4456176;32;20155;-88
2023/01/10 11:37:03;;;;;;;2.80;0.82;;;;;;;6.33;75.06;98043.66;4470448;32;20100;-84
2023/01/10 11:39:31;;;;;;;2.30;0.80;;;;;;;6.80;74.43;98043.00;4455575;32;20540;-84
2023/01/10 11:41:58;;;;;;;2.97;0.80;;;;;;;6.71;73.60;98048.75;4456582;32;20185;-84
2023/01/10 11:44:29;;;;;;;1.62;0.60;;;;;;;6.66;74.40;98047.22;4458387;32;20088;-84
2023/01/10 11:46:57;;;;;;;2.83;0.95;;;;;;;6.35;74.74;98055.72;4472534;32;20076;-84
2023/01/10 11:49:29;;;;;;;2.17;0.60;;;;;;;6.37;75.02;98068.72;4458369;32;20113;-84
2023/01/10 11:52:02;;;;;;;4.25;0.70;;;;;;;6.30;76.29;98050.72;4472399;32;20139;-84
2023/01/10 11:54:28;;;;;;;1.70;0.60;;;;;;;6.09;76.85;98057.00;4458403;32;20114;-84